North Spring Valley, Nevada Weather observations

Data are for 10 minute period ending at time listed.
 Day   Time   Solar   Ave.   Ave.  Ave.  Vector  Max.   Baro.   Total    
  of    of     Rad.   Air    Rel.  Wind   Wind   Wind  Press.  Precip.   
Year   Day            Temp.  Hum.  Speed  Dir.   Gust                    
2015   (PST)  Kw/m2    F      %     mph   deg.    mph    mb.     in.     
-------------------------------------------------------------------------
  26    1:20   0.00   28.7    82    0.7   328     2.1   836.4    0.00 
  26    1:30   0.00   28.6    82    1.4   300     2.7   836.3    0.00 
  26    1:40   0.00   27.7    83    2.2   270     3.5   836.3    0.00 
  26    1:50   0.00   28.6    82    2.8   312     4.2   836.2    0.00 
  26    2:00   0.00   28.5    82    4.0   308     5.3   836.3    0.00 
  26    2:10   0.00   28.5    83    4.3   320     5.4   836.2    0.00 
  26    2:20   0.00   29.4    81    3.9   278     5.5   836.1    0.00 
  26    2:30   0.00   29.4    80    2.0   260     4.2   836.1    0.00 
  26    2:40   0.00   25.7    80    1.9    36     4.7   836.0    0.00 
  26    2:50   0.00   24.3    86    1.3   309     2.6   835.9    0.00 
  26    3:00   0.00   25.2    87    2.2   315     3.3   835.9    0.00 
  26    3:10   0.00   26.2    85    3.0   325     4.5   835.8    0.00 
  26    3:20   0.00   26.2    84    4.3   293     5.0   835.7    0.00 
  26    3:30   0.00   26.2    85    4.3   280     5.2   835.7    0.00 
  26    3:40   0.00   27.4    85    2.8   225     4.0   835.7    0.00 
  26    3:50   0.00   28.7    83    3.8   171     5.7   835.7    0.00 
  26    4:00   0.00   28.4    83    3.3   176     4.5   835.8    0.00 
  26    4:10   0.00   28.3    82    4.2   174     6.4   835.9    0.00 
  26    4:20   0.00   25.7    84    3.2   154     5.2   835.9    0.00 
  26    4:30   0.00   25.0    86    3.3   147     4.2   835.9    0.00 
  26    4:40   0.00   23.5    87    3.1   183     4.5   836.0    0.00 
  26    4:50   0.00   23.5    88    3.2   218     4.8   836.0    0.00 
  26    5:00   0.00   24.7    88    2.4   233     3.1   835.9    0.00 
  26    5:10   0.00   24.3    86    4.5   278     5.3   835.8    0.00 
  26    5:20   0.00   24.0    89    4.7   265     5.5   835.7    0.00 
  26    5:30   0.00   24.0    89    4.1   269     4.7   835.7    0.00 
  26    5:40   0.00   24.4    89    4.8   263     5.6   835.7    0.00 
  26    5:50   0.00   25.3    88    3.7   265     4.7   835.8    0.00 
  26    6:00   0.00   24.2    86    2.3   341     3.6   835.8    0.00 
  26    6:10   0.00   23.7    88    3.5   277     5.0   835.8    0.00 
  26    6:20   0.00   24.6    90    2.8   297     3.9   835.8    0.00 
  26    6:30   0.00   26.2    81    1.4   336     3.7   835.8    0.00 
  26    6:40   0.00   22.7    84    0.1    56     1.3   835.8    0.00 
  26    6:50   0.00   23.2    89    0.8   245     2.5   835.8    0.00 
  26    7:00   0.01   26.7    87    1.1   290     2.1   835.7    0.00 
  26    7:10   0.02   27.7    80    2.2   336     3.3   835.7    0.00 
  26    7:20   0.06   27.9    79    3.4   298     4.2   835.6    0.00 
  26    7:30   0.09   28.8    81    4.0   289     5.2   835.5    0.00 
  26    7:40   0.11   30.3    80    3.2   299     4.5   835.4    0.00 
  26    7:50   0.14   31.5    79    3.1   281     3.9   835.3    0.00 
  26    8:00   0.17   34.0    75    1.9   280     3.4   835.1    0.00 
  26    8:10   0.20   37.0    69    0.6   242     2.2   835.0    0.00 
  26    8:20   0.23   37.0    70    2.7    79     3.7   834.9    0.00 
  26    8:30   0.25   36.6    68    3.1   108     4.0   834.9    0.00 
  26    8:40   0.28   36.7    67    2.6    94     4.1   834.9    0.00 
  26    8:50   0.31   37.0    67    3.3   128     5.8   834.9    0.00 
  26    9:00   0.34   38.0    65    2.6   153     4.2   835.0    0.00 
  26    9:10   0.37   38.7    63    1.7   124     3.3   835.0    0.00 
  26    9:20   0.39   40.3    60    1.8   130     4.1   834.9    0.00 
  26    9:30   0.42   40.1    60    2.4   126     3.8   834.9    0.00 
  26    9:40   0.44   41.2    58    1.7   102     4.0   834.8    0.00 
  26    9:50   0.47   43.0    55    1.6   118     3.7   834.8    0.00 
  26   10:00   0.48   44.4    52    1.5    59     3.4   834.7    0.00 
  26   10:10   0.50   44.6    51    1.7    67     4.6   834.6    0.00 
  26   10:20   0.52   45.9    50    1.5    70     4.3   834.6    0.00 
  26   10:30   0.54   47.2    48    1.9   131     4.0   834.5    0.00 
  26   10:40   0.56   48.5    47    2.5   138     4.5   834.4    0.00 
  26   10:50   0.57   49.4    46    3.0   126     5.3   834.2    0.00 
  26   11:00   0.50   50.6    44    2.4   169     4.2   834.1    0.00 
  26   11:10   0.53   50.9    44    2.0   149     4.2   833.9    0.00 
  26   11:20   0.56   51.8    43    1.5    58     4.4   833.7    0.00 
  26   11:30   0.59   52.5    42    3.4    76     5.8   833.4    0.00 
  26   11:40   0.57   53.3    41    3.1    87     6.5   833.2    0.00 
  26   11:50   0.57   54.2    40    3.2    76     7.5   833.1    0.00 
  26   12:00   0.61   55.1    39    2.5     9     8.9   832.9    0.00 
  26   12:10   0.61   55.8    38    3.0     7     6.4   832.7    0.00 
  26   12:20   0.60   57.2    37    1.8    14     6.0   832.5    0.00 
  26   12:30   0.59   57.6    35    4.4    23     7.7   832.3    0.00 
  26   12:40   0.59   58.4    34    4.6    16     8.6   832.1    0.00 
  26   12:50   0.58   59.2    32    4.5    23     8.6   832.0    0.00 
  26   13:00   0.55   59.5    31    5.0    29    10.8   831.8    0.00 
  26   13:10   0.49   59.4    31    5.5    16    10.7   831.6    0.00 
  26   13:20   0.50   59.6    31    6.5    33     9.6   831.4    0.00 
  26   13:30   0.50   59.5    30    5.2    46     8.9   831.3    0.00 
  26   13:40   0.50   60.3    29    3.5    12     7.8   831.3    0.00 
  26   13:50   0.49   60.9    28    2.6   351     6.2   831.4    0.00 
  26   14:00   0.46   60.8    28    2.2    48     5.6   831.3    0.00 
  26   14:10   0.43   61.4    27    2.2     4     6.4   831.3    0.00 
  26   14:20   0.40   62.4    26    1.6   114     4.8   831.2    0.00 
  26   14:30   0.36   61.2    27    3.0    53     6.9   831.1    0.00 
  26   14:40   0.18   60.0    28    2.5   100     4.5   831.1    0.00 
  26   14:50   0.12   58.8    30    2.9   126     5.0   831.1    0.00 
  26   15:00   0.10   58.1    31    1.9   120     2.9   831.0    0.00 
  26   15:10   0.08   57.6    32    0.6   126     2.0   831.0    0.00 
  26   15:20   0.10   57.3    32    1.6   180     5.0   831.0    0.00 
  26   15:30   0.10   55.1    37    3.4   236     4.2   831.0    0.00 
  26   15:40   0.10   53.6    40    4.0   245     4.7   831.0    0.00 
  26   15:50   0.09   53.0    42    3.9   247     4.9   830.9    0.00 
  26   16:00   0.07   51.8    44    4.0   256     4.5   830.8    0.00 
  26   16:10   0.05   50.3    47    4.0   255     4.9   830.7    0.00 
  26   16:20   0.04   49.5    48    5.1   253     5.5   830.7    0.00 
  26   16:30   0.03   48.6    49    5.2   254     6.0   830.7    0.00 
  26   16:40   0.02   47.4    51    5.4   277     6.6   830.7    0.00 
  26   16:50   0.01   47.6    48    5.0   306     6.9   830.5    0.00 
  26   17:00   0.01   49.5    42    2.6   312     4.9   830.6    0.00 
  26   17:10   0.00   47.0    46    3.4   294     4.3   830.6    0.00 
  26   17:20   0.00   44.5    52    4.6   287     5.6   830.6    0.00 
  26   17:30   0.00   44.4    53    5.3   283     6.0   830.6    0.00 
  26   17:40   0.00   43.3    55    5.0   284     6.1   830.6    0.00 
  26   17:50   0.00   44.5    53    4.8   304     6.4   830.7    0.00 
  26   18:00   0.00   44.4    53    4.7   292     6.9   830.6    0.00 
  26   18:10   0.00   44.2    52    4.1   281     5.6   830.6    0.00 
  26   18:20   0.00   44.0    53    4.4   292     6.0   830.7    0.00 
  26   18:30   0.00   43.8    53    5.1   284     6.1   830.7    0.00 
  26   18:40   0.00   42.9    55    5.3   298     7.2   830.8    0.00 
  26   18:50   0.00   43.1    54    5.9   313     7.3   830.8    0.00 
  26   19:00   0.00   42.4    54    5.1   301     6.0   830.7    0.00 
  26   19:10   0.00   39.6    60    4.0   286     5.3   830.6    0.00 
  26   19:20   0.00   41.5    56    3.4   297     4.9   830.5    0.00 
  26   19:30   0.00   39.7    59    2.9   294     4.7   830.5    0.00 
  26   19:40   0.00   39.4    60    0.4   331     2.7   830.5    0.00 
  26   19:50   0.00   39.4    59    0.9   273     2.4   830.5    0.00 
  26   20:00   0.00   38.4    60    1.2   281     2.9   830.6    0.00 
  26   20:10   0.00   37.3    63    3.7   275     6.1   830.5    0.00 
  26   20:20   0.00   38.1    62    4.2   247     5.2   830.5    0.00 
  26   20:30   0.00   38.2    61    3.1   250     4.5   830.4    0.00 
  26   20:40   0.00   37.1    62    3.3   240     4.9   830.3    0.00 
  26   20:50   0.00   36.9    64    3.3   166     5.5   830.4    0.00 
  26   21:00   0.00   36.7    65    4.1   189     5.6   830.5    0.00 
  26   21:10   0.00   37.0    65    5.1   187     7.2   830.5    0.00 
  26   21:20   0.00   37.1    65    4.4   209     5.3   830.5    0.00 
  26   21:30   0.00   36.9    65    3.2   177     4.5   830.5    0.00 
  26   21:40   0.00   34.8    68    2.7   157     4.1   830.7    0.00 
  26   21:50   0.00   33.4    71    1.7   177     3.1   830.7    0.00 
  26   22:00   0.00   32.4    72    2.0   179     4.5   830.6    0.00 
  26   22:10   0.00   32.5    73    3.3   199     5.0   830.4    0.00 
  26   22:20   0.00   32.1    74    4.0   205     5.8   830.4    0.00 
  26   22:30   0.00   33.1    72    4.9   186     6.1   830.5    0.00 
  26   22:40   0.00   32.6    74    5.0   184     6.1   830.7    0.00 
  26   22:50   0.00   32.9    74    4.1   197     5.3   830.7    0.00 
  26   23:00   0.00   34.5    71    3.6   204     4.7   830.7    0.00 
  26   23:10   0.00   31.4    72    1.2    75     2.4   830.8    0.00 
  26   23:20   0.00   26.8    80    1.5     5     3.2   830.8    0.00 
  26   23:30   0.00   26.4    84    1.2   343     3.1   830.6    0.00 
  26   23:40   0.00   27.6    84    1.9   191     2.7   830.7    0.00 
  26   23:50   0.00   28.8    82    2.8   247     3.7   830.8    0.00 
  27    0:00   0.00   30.4    80    2.5   200     3.4   830.8    0.00 
  27    0:10   0.00   29.8    79    0.7   144     2.0   830.8    0.00 
  27    0:20   0.00   28.6    80    0.6    70     2.4   830.7    0.00 
  27    0:30   0.00   26.2    80    0.4    43     1.8   830.7    0.00 
  27    0:40   0.00   25.1    84    1.5   325     3.4   830.5    0.00 
  27    0:50   0.00   25.1    87    0.9   327     2.6   830.7    0.00 
  27    1:00   0.00   27.6    88    4.0   276     5.5   830.7    0.00 
  27    1:10   0.00   29.4    85    2.8   242     5.4   830.8    0.00 

Return to North Spring Valley graphs page.


Western Regional Climate Center,wrcc@dri.edu